Time;durP1;ratioP1;P1;durP2;ratioP2;P2;SDS_P1;SDS_P2;PMS_P1;PMS_P2;Temp;Humidity;BMP_temperature;BMP_pressure;BME280_temperature;BME280_humidity;BME280_pressure;Samples;Min_cycle;Max_cycle;Signal;HPM_P1;HPM_P2
2021/12/06 00:00:45;;;;;;;35.38;17.77;;;;;;;;;;347621;154;868409;-55
2021/12/06 00:02:01;;;;;;;31.14;16.73;;;;;;;;;;346697;154;865977;-55
2021/12/06 00:03:04;;;;;;;30.35;17.47;;;;;;;;;;346224;151;857199;-55
2021/12/06 00:04:07;;;;;;;22.23;12.91;;;;;;;;;;346144;154;857276;-55
2021/12/06 00:05:09;;;;;;;20.59;11.52;;;;;;;;;;345329;154;865024;-56
2021/12/06 00:06:12;;;;;;;21.46;11.57;;;;;;;;;;345840;154;857399;-56
2021/12/06 00:07:16;;;;;;;28.74;14.29;;;;;;;;;;349233;152;865708;-55
2021/12/06 00:08:17;;;;;;;31.74;16.90;;;;;;;;;;343289;155;864982;-56
2021/12/06 00:09:19;;;;;;;31.61;15.53;;;;;;;;;;357679;147;858726;-55
2021/12/06 00:10:21;;;;;;;27.79;14.55;;;;;;;;;;357753;149;864971;-56
2021/12/06 00:11:23;;;;;;;29.36;16.07;;;;;;;;;;359023;150;864951;-55
2021/12/06 00:12:24;;;;;;;28.84;16.56;;;;;;;;;;358495;147;866492;-55
2021/12/06 00:13:27;;;;;;;23.20;12.74;;;;;;;;;;358418;147;859083;-56
2021/12/06 00:14:30;;;;;;;22.78;13.64;;;;;;;;;;358617;148;862476;-55
2021/12/06 00:15:33;;;;;;;28.12;16.37;;;;;;;;;;358420;148;857221;-55
2021/12/06 00:16:35;;;;;;;29.39;17.50;;;;;;;;;;358850;147;866675;-57
2021/12/06 00:17:36;;;;;;;30.89;17.06;;;;;;;;;;357087;147;857173;-56
2021/12/06 00:18:38;;;;;;;28.85;16.59;;;;;;;;;;358418;149;858649;-56
2021/12/06 00:19:39;;;;;;;32.41;16.62;;;;;;;;;;356813;148;866873;-55
2021/12/06 00:20:41;;;;;;;28.71;15.94;;;;;;;;;;358508;147;863765;-55
2021/12/06 00:21:43;;;;;;;29.35;16.04;;;;;;;;;;356251;147;866713;-55
2021/12/06 00:22:45;;;;;;;26.91;14.57;;;;;;;;;;357763;147;858852;-56
2021/12/06 00:23:46;;;;;;;28.32;15.16;;;;;;;;;;356931;147;865810;-56
2021/12/06 00:24:48;;;;;;;30.88;16.69;;;;;;;;;;353697;147;865273;-57
2021/12/06 00:25:49;;;;;;;27.16;14.37;;;;;;;;;;357196;150;862675;-57
2021/12/06 00:26:51;;;;;;;27.57;13.21;;;;;;;;;;356355;147;858918;-57
2021/12/06 00:27:53;;;;;;;29.07;16.83;;;;;;;;;;356209;149;859205;-57
2021/12/06 00:28:58;;;;;;;33.52;16.52;;;;;;;;;;355571;150;857274;-58
2021/12/06 00:29:58;;;;;;;27.50;14.61;;;;;;;;;;354634;147;865176;-58
2021/12/06 00:31:00;;;;;;;28.79;14.81;;;;;;;;;;356213;148;857687;-57
2021/12/06 00:32:01;;;;;;;25.06;14.73;;;;;;;;;;357002;147;867369;-58
2021/12/06 00:33:03;;;;;;;24.63;14.63;;;;;;;;;;358302;147;860978;-54
2021/12/06 00:34:07;;;;;;;25.18;12.91;;;;;;;;;;357217;147;859037;-57
2021/12/06 00:35:12;;;;;;;25.77;13.62;;;;;;;;;;358432;150;860727;-57
2021/12/06 00:36:17;;;;;;;23.32;14.37;;;;;;;;;;354344;150;857784;-54
2021/12/06 00:37:19;;;;;;;27.98;14.87;;;;;;;;;;355837;147;858208;-56
2021/12/06 00:38:20;;;;;;;26.01;14.74;;;;;;;;;;357021;149;859065;-56
2021/12/06 00:39:22;;;;;;;28.73;14.56;;;;;;;;;;355730;149;857198;-56
2021/12/06 00:40:31;;;;;;;23.69;14.25;;;;;;;;;;357620;147;865371;-56
2021/12/06 00:41:33;;;;;;;26.04;13.96;;;;;;;;;;355832;147;857362;-56
2021/12/06 00:42:35;;;;;;;23.82;14.37;;;;;;;;;;359129;147;857212;-56
2021/12/06 00:43:37;;;;;;;22.68;13.50;;;;;;;;;;358824;147;859807;-56
2021/12/06 00:44:39;;;;;;;23.76;14.05;;;;;;;;;;357646;149;857884;-56
2021/12/06 00:45:40;;;;;;;23.04;13.04;;;;;;;;;;358795;147;857205;-56
2021/12/06 00:46:42;;;;;;;23.66;13.21;;;;;;;;;;357486;147;857200;-56
2021/12/06 00:47:43;;;;;;;25.12;14.76;;;;;;;;;;356740;147;864751;-56
2021/12/06 00:48:45;;;;;;;24.47;14.06;;;;;;;;;;357771;147;865567;-56
2021/12/06 00:49:47;;;;;;;21.51;11.68;;;;;;;;;;358555;149;863501;-56
2021/12/06 00:50:49;;;;;;;25.13;13.23;;;;;;;;;;357611;147;859669;-55
2021/12/06 00:51:50;;;;;;;23.95;13.01;;;;;;;;;;356941;149;857308;-55
2021/12/06 00:52:52;;;;;;;24.34;12.17;;;;;;;;;;356760;147;864920;-56
2021/12/06 00:53:53;;;;;;;18.84;10.64;;;;;;;;;;357898;150;857608;-55
2021/12/06 00:54:55;;;;;;;20.29;12.89;;;;;;;;;;357307;147;865819;-56
2021/12/06 00:55:56;;;;;;;21.47;11.72;;;;;;;;;;354535;149;862663;-56
2021/12/06 00:56:58;;;;;;;21.92;12.54;;;;;;;;;;353063;147;859479;-56
2021/12/06 00:58:00;;;;;;;20.15;11.21;;;;;;;;;;358888;147;867081;-58
2021/12/06 00:59:01;;;;;;;20.61;11.83;;;;;;;;;;356858;147;860899;-56
2021/12/06 01:00:05;;;;;;;18.64;11.74;;;;;;;;;;355631;147;857213;-56
2021/12/06 01:01:07;;;;;;;23.11;12.87;;;;;;;;;;360356;148;866891;-56
2021/12/06 01:02:08;;;;;;;18.09;9.74;;;;;;;;;;356894;147;858070;-56
2021/12/06 01:03:15;;;;;;;23.89;12.87;;;;;;;;;;351745;151;860318;-54
2021/12/06 01:04:16;;;;;;;22.94;12.86;;;;;;;;;;358443;150;857349;-56
2021/12/06 01:05:18;;;;;;;20.84;11.82;;;;;;;;;;357501;148;857780;-56
2021/12/06 01:06:21;;;;;;;23.51;12.57;;;;;;;;;;358376;148;865510;-56
2021/12/06 01:07:22;;;;;;;23.76;13.41;;;;;;;;;;357789;147;858086;-56
2021/12/06 01:08:24;;;;;;;17.84;11.07;;;;;;;;;;351186;151;865678;-55
2021/12/06 01:09:26;;;;;;;22.58;12.09;;;;;;;;;;352645;150;864838;-55
2021/12/06 01:10:28;;;;;;;20.32;11.13;;;;;;;;;;352103;150;857207;-56
2021/12/06 01:11:30;;;;;;;19.93;12.07;;;;;;;;;;351461;153;857671;-55
2021/12/06 01:12:31;;;;;;;18.61;11.45;;;;;;;;;;352215;150;857168;-56
2021/12/06 01:13:33;;;;;;;15.62;9.57;;;;;;;;;;352744;151;865464;-55
2021/12/06 01:14:34;;;;;;;19.98;12.15;;;;;;;;;;350958;150;866772;-55
2021/12/06 01:15:36;;;;;;;15.51;8.72;;;;;;;;;;352413;150;859389;-58
2021/12/06 01:16:38;;;;;;;18.79;10.55;;;;;;;;;;351551;150;859384;-58
2021/12/06 01:17:40;;;;;;;20.20;11.64;;;;;;;;;;351439;151;865445;-56
2021/12/06 01:18:41;;;;;;;18.71;11.81;;;;;;;;;;352607;151;857278;-56
2021/12/06 01:19:43;;;;;;;19.18;12.02;;;;;;;;;;351322;150;857376;-55
2021/12/06 01:21:00;;;;;;;19.19;11.47;;;;;;;;;;346972;150;861824;-55
2021/12/06 01:22:12;;;;;;;19.25;10.88;;;;;;;;;;350507;153;865799;-55
2021/12/06 01:23:07;;;;;;;19.28;11.37;;;;;;;;;;349174;151;858650;-55
2021/12/06 01:24:09;;;;;;;17.57;10.99;;;;;;;;;;351455;150;858871;-55
2021/12/06 01:25:25;;;;;;;17.34;9.68;;;;;;;;;;351524;150;858789;-57
2021/12/06 01:26:41;;;;;;;19.60;11.59;;;;;;;;;;348468;151;857668;-56
2021/12/06 01:30:18;;;;;;;20.69;11.77;;;;;;;;;;351922;151;859166;-57
2021/12/06 01:39:32;;;;;;;20.66;11.37;;;;;;;;;;348695;151;866056;-56
2021/12/06 01:40:34;;;;;;;20.54;11.79;;;;;;;;;;352336;150;857171;-56
2021/12/06 01:41:36;;;;;;;21.11;12.33;;;;;;;;;;350446;151;864928;-56
2021/12/06 01:42:38;;;;;;;18.72;11.55;;;;;;;;;;350467;153;862472;-56
2021/12/06 01:43:58;;;;;;;23.59;12.64;;;;;;;;;;351129;152;866023;-56
2021/12/06 01:45:00;;;;;;;21.40;12.63;;;;;;;;;;350041;151;864771;-56
2021/12/06 01:46:02;;;;;;;18.91;11.35;;;;;;;;;;351999;150;864529;-56
2021/12/06 01:47:11;;;;;;;16.19;8.97;;;;;;;;;;350928;151;858963;-56
2021/12/06 01:48:13;;;;;;;21.67;13.17;;;;;;;;;;351130;151;857772;-56
2021/12/06 01:49:14;;;;;;;20.65;13.44;;;;;;;;;;351127;151;857440;-56
2021/12/06 01:50:18;;;;;;;20.45;12.72;;;;;;;;;;353481;150;865299;-56
2021/12/06 01:51:20;;;;;;;25.72;14.52;;;;;;;;;;352099;150;857134;-56
2021/12/06 01:52:23;;;;;;;23.63;13.76;;;;;;;;;;351996;151;858919;-56
2021/12/06 01:53:24;;;;;;;23.21;13.69;;;;;;;;;;351158;151;864763;-55
2021/12/06 01:54:26;;;;;;;22.94;14.69;;;;;;;;;;351212;151;857508;-56
2021/12/06 01:55:29;;;;;;;21.81;14.08;;;;;;;;;;351473;151;865069;-55
2021/12/06 01:56:31;;;;;;;23.97;14.21;;;;;;;;;;351167;152;857331;-56
2021/12/06 01:57:33;;;;;;;22.03;13.74;;;;;;;;;;350907;152;866557;-55
2021/12/06 01:58:34;;;;;;;23.26;14.19;;;;;;;;;;352471;150;857237;-57
2021/12/06 01:59:36;;;;;;;21.93;13.24;;;;;;;;;;351390;150;857246;-57
2021/12/06 02:00:40;;;;;;;24.01;13.67;;;;;;;;;;353762;151;859403;-58
2021/12/06 02:01:41;;;;;;;24.29;14.28;;;;;;;;;;350480;150;865660;-57
2021/12/06 02:02:43;;;;;;;25.08;14.15;;;;;;;;;;351121;150;857376;-58
2021/12/06 02:03:45;;;;;;;22.42;13.79;;;;;;;;;;351096;152;864793;-57
2021/12/06 02:04:46;;;;;;;24.59;14.57;;;;;;;;;;352311;149;865312;-58
2021/12/06 02:05:48;;;;;;;24.26;14.31;;;;;;;;;;352472;150;859600;-58
2021/12/06 02:06:50;;;;;;;26.53;14.45;;;;;;;;;;352487;151;859866;-58
2021/12/06 02:07:52;;;;;;;21.94;13.74;;;;;;;;;;351910;150;858257;-56
2021/12/06 02:08:53;;;;;;;22.93;13.92;;;;;;;;;;351973;149;863010;-56
2021/12/06 02:09:56;;;;;;;22.98;13.66;;;;;;;;;;352166;152;857863;-56
2021/12/06 02:11:02;;;;;;;23.12;13.07;;;;;;;;;;352931;152;864883;-56
2021/12/06 02:12:03;;;;;;;24.92;14.04;;;;;;;;;;350310;152;859996;-56
2021/12/06 02:13:06;;;;;;;22.92;13.16;;;;;;;;;;352881;150;860433;-56
2021/12/06 02:15:30;;;;;;;24.18;14.21;;;;;;;;;;347953;148;857657;-56
2021/12/06 02:16:15;;;;;;;25.41;14.94;;;;;;;;;;349477;150;857185;-56
2021/12/06 02:17:25;;;;;;;24.23;14.38;;;;;;;;;;347965;152;860281;-56
2021/12/06 02:18:42;;;;;;;23.68;13.99;;;;;;;;;;350213;150;857632;-56
2021/12/06 02:19:34;;;;;;;24.83;14.23;;;;;;;;;;348209;150;857670;-56
2021/12/06 02:20:43;;;;;;;23.24;13.84;;;;;;;;;;351639;152;859012;-56
2021/12/06 02:21:42;;;;;;;24.36;14.02;;;;;;;;;;352131;152;857999;-56
2021/12/06 02:22:45;;;;;;;24.67;13.61;;;;;;;;;;350446;148;862572;-56
2021/12/06 02:23:47;;;;;;;25.01;13.97;;;;;;;;;;349104;152;858036;-56
2021/12/06 02:24:48;;;;;;;23.07;14.39;;;;;;;;;;350476;152;857367;-56
2021/12/06 02:25:50;;;;;;;25.48;14.55;;;;;;;;;;352494;150;856225;-56
2021/12/06 02:26:53;;;;;;;23.00;14.02;;;;;;;;;;349547;150;856409;-57
2021/12/06 02:27:55;;;;;;;24.82;14.18;;;;;;;;;;352814;152;863691;-57
2021/12/06 02:28:56;;;;;;;25.45;14.83;;;;;;;;;;350729;148;856211;-57
2021/12/06 02:29:59;;;;;;;24.05;14.15;;;;;;;;;;350991;150;856695;-57
2021/12/06 02:31:00;;;;;;;25.91;13.87;;;;;;;;;;349657;151;863985;-57
2021/12/06 02:32:05;;;;;;;25.07;14.71;;;;;;;;;;351419;150;856140;-57
2021/12/06 02:33:05;;;;;;;22.08;13.65;;;;;;;;;;351542;148;864331;-57
2021/12/06 02:34:07;;;;;;;23.56;14.36;;;;;;;;;;352744;151;856017;-57
2021/12/06 02:35:11;;;;;;;21.30;13.91;;;;;;;;;;351608;152;863628;-57
2021/12/06 02:36:15;;;;;;;24.75;13.79;;;;;;;;;;337831;155;856038;-57
2021/12/06 02:37:18;;;;;;;24.87;13.51;;;;;;;;;;338565;155;856564;-57
2021/12/06 02:38:19;;;;;;;24.19;13.38;;;;;;;;;;339064;155;856034;-57
2021/12/06 02:39:23;;;;;;;23.62;14.16;;;;;;;;;;339275;155;863535;-57
2021/12/06 02:40:26;;;;;;;23.87;14.51;;;;;;;;;;339677;155;863782;-56
2021/12/06 02:41:27;;;;;;;25.05;13.65;;;;;;;;;;341321;155;863536;-57
2021/12/06 02:42:29;;;;;;;22.97;12.61;;;;;;;;;;342068;155;863672;-57
2021/12/06 02:43:33;;;;;;;23.94;13.94;;;;;;;;;;338418;154;863823;-57
2021/12/06 02:46:23;;;;;;;23.33;13.44;;;;;;;0.62;75.22;99453.88;376331;141;882178;-54
2021/12/06 02:47:25;;;;;;;18.79;11.29;;;;;;;;;;371329;143;858823;-56
2021/12/06 02:48:26;;;;;;;20.40;11.70;;;;;;;;;;370331;144;856457;-56
2021/12/06 02:49:28;;;;;;;18.98;12.09;;;;;;;;;;369408;144;862484;-56
2021/12/06 02:50:37;;;;;;;20.69;13.14;;;;;;;;;;368710;143;866093;-56
2021/12/06 02:51:39;;;;;;;18.66;12.08;;;;;;;;;;369400;144;859312;-57
2021/12/06 02:52:41;;;;;;;22.51;13.64;;;;;;;;;;368809;144;857648;-56
2021/12/06 02:53:42;;;;;;;19.61;12.54;;;;;;;;;;369911;144;864637;-56
2021/12/06 02:54:44;;;;;;;21.74;13.44;;;;;;;;;;371250;143;857759;-56
2021/12/06 02:55:51;;;;;;;21.02;13.25;;;;;;;;;;369463;144;857060;-56
2021/12/06 02:57:07;;;;;;;21.54;12.19;;;;;;;;;;368967;144;864834;-56
2021/12/06 02:57:59;;;;;;;20.91;13.02;;;;;;;;;;368246;144;856758;-56
2021/12/06 02:59:02;;;;;;;21.79;13.77;;;;;;;;;;369861;144;859133;-56
2021/12/06 03:00:06;;;;;;;22.61;12.46;;;;;;;;;;370939;144;857088;-55
2021/12/06 03:01:15;;;;;;;24.01;14.03;;;;;;;;;;370450;144;864790;-56
2021/12/06 03:02:18;;;;;;;23.36;13.92;;;;;;;;;;372629;144;859336;-56
2021/12/06 03:03:19;;;;;;;26.37;15.49;;;;;;;;;;366557;144;857205;-56
2021/12/06 03:04:21;;;;;;;24.11;13.91;;;;;;;;;;367363;144;860040;-57
2021/12/06 03:05:22;;;;;;;23.47;14.18;;;;;;;;;;363494;144;864769;-56
2021/12/06 03:06:25;;;;;;;21.24;13.73;;;;;;;;;;363679;147;857118;-56
2021/12/06 03:07:28;;;;;;;24.26;13.59;;;;;;;;;;362945;145;856243;-56
2021/12/06 03:08:40;;;;;;;21.11;13.24;;;;;;;;;;354885;150;866523;-56
2021/12/06 03:09:42;;;;;;;24.20;14.55;;;;;;;;;;352779;151;859523;-55
2021/12/06 03:10:43;;;;;;;23.88;13.69;;;;;;;;;;353722;150;859525;-56
2021/12/06 03:11:46;;;;;;;22.04;13.25;;;;;;;;;;363251;145;864751;-56
2021/12/06 03:12:48;;;;;;;21.76;13.71;;;;;;;;;;363306;146;857255;-57
2021/12/06 03:13:49;;;;;;;21.56;12.84;;;;;;;;;;365637;145;858343;-56
2021/12/06 03:14:53;;;;;;;23.80;13.16;;;;;;;;;;364973;146;864830;-56
2021/12/06 03:15:55;;;;;;;24.47;14.32;;;;;;;;;;364328;145;857462;-56
2021/12/06 03:16:57;;;;;;;21.21;13.42;;;;;;;;;;364322;145;864204;-56
2021/12/06 03:17:58;;;;;;;22.31;13.47;;;;;;;;;;363463;145;866564;-56
2021/12/06 03:19:00;;;;;;;20.64;13.40;;;;;;;;;;365495;145;857288;-56
2021/12/06 03:20:03;;;;;;;21.08;13.47;;;;;;;;;;363958;145;865011;-56
2021/12/06 03:21:05;;;;;;;22.49;14.27;;;;;;;;;;364704;145;857152;-56
2021/12/06 03:22:08;;;;;;;23.91;14.05;;;;;;;;;;363014;145;858762;-56
2021/12/06 03:23:09;;;;;;;22.81;13.41;;;;;;;;;;363145;146;864893;-56
2021/12/06 03:24:11;;;;;;;19.76;12.19;;;;;;;;;;365485;145;859719;-56
2021/12/06 03:25:13;;;;;;;22.95;13.54;;;;;;;;;;363947;144;864693;-56
2021/12/06 03:26:16;;;;;;;20.39;12.23;;;;;;;;;;363997;145;864752;-56
2021/12/06 03:27:18;;;;;;;18.75;12.29;;;;;;;;;;364402;145;858387;-56
2021/12/06 03:28:19;;;;;;;21.65;12.69;;;;;;;;;;367120;144;865211;-56
2021/12/06 03:29:21;;;;;;;20.94;12.29;;;;;;;;;;365226;144;857307;-57
2021/12/06 03:30:23;;;;;;;20.28;12.76;;;;;;;;;;365467;146;860171;-56
2021/12/06 03:31:24;;;;;;;20.53;12.68;;;;;;;;;;362491;147;858171;-57
2021/12/06 03:32:26;;;;;;;21.17;13.47;;;;;;;;;;363571;145;865933;-57
2021/12/06 03:33:27;;;;;;;19.41;12.57;;;;;;;;;;364586;145;864933;-56
2021/12/06 03:34:29;;;;;;;19.86;12.86;;;;;;;;;;361529;145;857556;-58
2021/12/06 03:35:31;;;;;;;19.11;12.64;;;;;;;;;;361142;146;866332;-57
2021/12/06 03:36:33;;;;;;;19.37;11.99;;;;;;;;;;364423;145;861247;-58
2021/12/06 03:37:34;;;;;;;18.42;11.41;;;;;;;;;;363245;145;865608;-58
2021/12/06 03:38:36;;;;;;;20.84;11.90;;;;;;;;;;364958;146;857870;-56
2021/12/06 03:39:39;;;;;;;18.17;11.77;;;;;;;;;;364565;145;864821;-56
2021/12/06 03:40:41;;;;;;;17.87;11.46;;;;;;;;;;365755;145;864788;-56
2021/12/06 03:41:42;;;;;;;18.18;12.06;;;;;;;;;;364856;144;858171;-57
2021/12/06 03:42:44;;;;;;;14.70;9.41;;;;;;;;;;364117;146;864854;-57
2021/12/06 03:43:45;;;;;;;18.17;10.74;;;;;;;;;;364160;145;860074;-56
2021/12/06 03:44:47;;;;;;;17.48;11.38;;;;;;;;;;362080;145;857296;-56
2021/12/06 03:45:49;;;;;;;18.64;11.36;;;;;;;;;;363251;146;859135;-56
2021/12/06 03:46:52;;;;;;;16.88;10.91;;;;;;;;;;363207;145;860729;-55
2021/12/06 03:47:54;;;;;;;16.46;10.79;;;;;;;;;;361911;147;859689;-56
2021/12/06 03:48:55;;;;;;;17.69;10.95;;;;;;;;;;361174;147;856524;-56
2021/12/06 03:49:57;;;;;;;18.10;11.15;;;;;;;;;;362090;146;865876;-56
2021/12/06 03:50:59;;;;;;;18.14;11.81;;;;;;;;;;363223;146;864390;-55
2021/12/06 03:52:01;;;;;;;16.06;11.23;;;;;;;;;;363312;146;864494;-56
2021/12/06 03:53:02;;;;;;;16.16;8.54;;;;;;;;;;354443;149;857724;-54
2021/12/06 03:54:04;;;;;;;16.29;9.85;;;;;;;;;;362706;146;866823;-55
2021/12/06 03:55:06;;;;;;;21.14;12.72;;;;;;;;;;363221;147;861038;-55
2021/12/06 03:56:08;;;;;;;18.37;11.24;;;;;;;;;;360343;146;865138;-55
2021/12/06 03:57:10;;;;;;;17.22;9.66;;;;;;;;;;364754;145;859615;-56
2021/12/06 03:58:12;;;;;;;17.79;10.60;;;;;;;;;;362694;145;864921;-55
2021/12/06 03:59:13;;;;;;;19.43;11.73;;;;;;;;;;362507;146;857527;-55
2021/12/06 04:00:15;;;;;;;22.49;13.01;;;;;;;;;;363490;146;866495;-56
2021/12/06 04:01:17;;;;;;;19.62;12.60;;;;;;;;;;362786;146;857232;-56
2021/12/06 04:02:22;;;;;;;20.09;12.65;;;;;;;;;;363452;146;857794;-56
2021/12/06 04:03:25;;;;;;;20.11;12.21;;;;;;;;;;362358;146;858395;-56
2021/12/06 04:04:26;;;;;;;22.45;12.80;;;;;;;;;;363825;146;858163;-58
2021/12/06 04:05:28;;;;;;;22.36;12.35;;;;;;;;;;364724;146;858073;-55
2021/12/06 04:06:30;;;;;;;22.40;13.20;;;;;;;;;;364781;146;857202;-55
2021/12/06 04:07:32;;;;;;;18.29;10.93;;;;;;;;;;363408;144;864771;-56
2021/12/06 04:08:33;;;;;;;20.56;11.54;;;;;;;;;;364230;146;857194;-55
2021/12/06 04:09:35;;;;;;;20.85;12.01;;;;;;;;;;360839;146;865567;-55
2021/12/06 04:10:37;;;;;;;22.83;12.61;;;;;;;;;;363546;145;858909;-54
2021/12/06 04:11:38;;;;;;;18.67;11.66;;;;;;;;;;363596;145;859220;-55
2021/12/06 04:12:40;;;;;;;21.22;12.55;;;;;;;;;;362862;147;864672;-56
2021/12/06 04:13:42;;;;;;;20.50;12.19;;;;;;;;;;362851;146;864932;-55
2021/12/06 04:14:44;;;;;;;20.47;12.63;;;;;;;;;;364128;145;864867;-54
2021/12/06 04:15:45;;;;;;;20.38;12.56;;;;;;;;;;364231;146;857165;-56
2021/12/06 04:16:47;;;;;;;18.83;12.14;;;;;;;;;;363312;147;863548;-55
2021/12/06 04:17:48;;;;;;;18.74;11.66;;;;;;;;;;362008;145;868727;-54
2021/12/06 04:18:50;;;;;;;20.92;11.72;;;;;;;;;;362246;146;861754;-55
2021/12/06 04:19:52;;;;;;;18.76;11.39;;;;;;;;;;363446;146;864891;-55
2021/12/06 04:20:53;;;;;;;17.68;11.03;;;;;;;;;;360648;147;865166;-58
2021/12/06 04:21:55;;;;;;;21.12;11.91;;;;;;;;;;361411;145;856384;-55
2021/12/06 04:22:57;;;;;;;17.89;10.76;;;;;;;;;;362221;146;859349;-55
2021/12/06 04:23:58;;;;;;;18.38;11.36;;;;;;;;;;362185;146;865129;-55
2021/12/06 04:25:02;;;;;;;18.69;11.12;;;;;;;;;;363282;146;863513;-56
2021/12/06 04:26:03;;;;;;;16.48;10.50;;;;;;;;;;363008;146;859105;-58
2021/12/06 04:27:13;;;;;;;13.81;8.71;;;;;;;;;;361511;147;864887;-55
2021/12/06 04:28:13;;;;;;;18.72;10.54;;;;;;;;;;362006;147;860379;-55
2021/12/06 04:29:12;;;;;;;18.12;11.00;;;;;;;;;;364027;146;857234;-57
2021/12/06 04:30:14;;;;;;;18.97;10.69;;;;;;;;;;355453;148;857815;-55
2021/12/06 04:31:16;;;;;;;19.29;11.79;;;;;;;;;;361477;146;857301;-55
2021/12/06 04:32:18;;;;;;;17.15;11.23;;;;;;;;;;362669;145;864892;-55
2021/12/06 04:33:19;;;;;;;19.35;11.69;;;;;;;;;;362356;146;857417;-56
2021/12/06 04:34:21;;;;;;;18.30;11.44;;;;;;;;;;361073;148;858952;-55
2021/12/06 04:35:22;;;;;;;18.91;11.63;;;;;;;;;;362766;146;865406;-58
2021/12/06 04:36:25;;;;;;;20.71;11.88;;;;;;;;;;362947;146;864612;-56
2021/12/06 04:37:26;;;;;;;20.07;12.07;;;;;;;;;;360855;147;857110;-56
2021/12/06 04:38:28;;;;;;;17.59;10.96;;;;;;;;;;362529;146;857693;-54
2021/12/06 04:39:29;;;;;;;17.22;10.29;;;;;;;;;;362946;146;857315;-54
2021/12/06 04:40:31;;;;;;;20.29;11.47;;;;;;;;;;360517;146;857277;-55
2021/12/06 04:41:33;;;;;;;19.29;11.75;;;;;;;;;;358988;146;857631;-55
2021/12/06 04:42:34;;;;;;;21.61;12.58;;;;;;;;;;364039;146;865661;-55
2021/12/06 04:43:36;;;;;;;19.14;11.59;;;;;;;;;;362346;146;859046;-55
2021/12/06 04:44:37;;;;;;;20.13;11.64;;;;;;;;;;361364;147;856381;-55
2021/12/06 04:45:39;;;;;;;21.52;11.94;;;;;;;;;;362693;146;860127;-56
2021/12/06 04:46:41;;;;;;;19.16;11.70;;;;;;;;;;362239;146;862670;-56
2021/12/06 04:47:42;;;;;;;20.46;11.46;;;;;;;;;;361879;146;864788;-54
2021/12/06 04:48:44;;;;;;;19.14;11.97;;;;;;;;;;360841;147;862318;-55
2021/12/06 04:49:45;;;;;;;24.18;11.68;;;;;;;;;;362562;145;865558;-55
2021/12/06 04:50:47;;;;;;;21.30;12.44;;;;;;;;;;359574;146;865915;-55
2021/12/06 04:51:49;;;;;;;20.64;12.46;;;;;;;;;;357253;145;865066;-56
2021/12/06 04:52:52;;;;;;;20.49;11.37;;;;;;;;;;362663;146;864930;-55
2021/12/06 04:53:54;;;;;;;21.89;13.22;;;;;;;;;;363155;146;857364;-54
2021/12/06 04:54:56;;;;;;;23.09;13.34;;;;;;;;;;358028;146;863786;-54
2021/12/06 04:55:59;;;;;;;23.31;13.43;;;;;;;;;;363966;146;866561;-55
2021/12/06 04:57:03;;;;;;;22.13;12.98;;;;;;;;;;362031;146;857087;-55
2021/12/06 04:58:05;;;;;;;22.66;13.38;;;;;;;;;;359347;146;857207;-55
2021/12/06 04:59:14;;;;;;;20.83;12.41;;;;;;;;;;362767;147;857295;-55
2021/12/06 05:00:31;;;;;;;23.60;13.62;;;;;;;;;;362046;145;857342;-55
2021/12/06 05:01:34;;;;;;;18.76;10.82;;;;;;;;;;361106;147;866481;-54
2021/12/06 05:02:36;;;;;;;22.00;12.96;;;;;;;;;;360058;147;857562;-55
2021/12/06 05:03:38;;;;;;;20.69;10.82;;;;;;;;;;364354;146;858155;-54
2021/12/06 05:04:40;;;;;;;24.07;13.41;;;;;;;;;;363730;146;858816;-54
2021/12/06 05:05:43;;;;;;;21.30;13.38;;;;;;;;;;361327;147;858771;-54
2021/12/06 05:06:46;;;;;;;21.66;12.64;;;;;;;;;;361748;146;857195;-55
2021/12/06 05:07:48;;;;;;;22.61;13.41;;;;;;;;;;362962;146;857321;-54
2021/12/06 05:08:51;;;;;;;21.26;12.62;;;;;;;;;;361225;145;857405;-56
2021/12/06 05:09:52;;;;;;;21.97;13.47;;;;;;;;;;361233;148;864879;-56
2021/12/06 05:10:54;;;;;;;19.05;10.74;;;;;;;;;;361605;146;857314;-55
2021/12/06 05:11:56;;;;;;;22.45;13.43;;;;;;;;;;363951;148;865153;-55
2021/12/06 05:12:58;;;;;;;21.40;12.27;;;;;;;;;;363721;147;859085;-55
2021/12/06 05:14:01;;;;;;;24.85;14.03;;;;;;;;;;362297;145;857325;-56
2021/12/06 05:15:04;;;;;;;23.34;13.90;;;;;;;;;;362121;146;863205;-56
2021/12/06 05:16:05;;;;;;;26.95;14.29;;;;;;;;;;362438;146;864717;-55
2021/12/06 05:17:07;;;;;;;23.06;13.44;;;;;;;;;;361782;146;864782;-58
2021/12/06 05:18:09;;;;;;;23.56;13.31;;;;;;;;;;364046;146;864819;-59
2021/12/06 05:19:11;;;;;;;22.86;11.56;;;;;;;;;;361282;146;857278;-57
2021/12/06 05:20:13;;;;;;;23.57;13.61;;;;;;;;;;359749;147;857278;-58
2021/12/06 05:21:15;;;;;;;26.64;14.05;;;;;;;;;;362432;145;857293;-59
2021/12/06 05:22:17;;;;;;;25.65;13.67;;;;;;;;;;360973;146;856112;-60
2021/12/06 05:23:18;;;;;;;23.31;13.53;;;;;;;;;;360145;146;857251;-59
2021/12/06 05:24:20;;;;;;;23.16;12.90;;;;;;;;;;361418;146;857285;-57
2021/12/06 05:25:23;;;;;;;24.25;13.58;;;;;;;;;;363407;146;856669;-57
2021/12/06 05:26:25;;;;;;;23.66;12.98;;;;;;;;;;363302;147;860483;-57
2021/12/06 05:27:29;;;;;;;22.60;13.24;;;;;;;;;;363324;148;857861;-57
2021/12/06 05:28:32;;;;;;;22.05;13.05;;;;;;;;;;363933;145;857115;-57
2021/12/06 05:29:33;;;;;;;27.02;14.05;;;;;;;;;;362731;146;858885;-57
2021/12/06 05:30:37;;;;;;;23.49;13.73;;;;;;;;;;362611;146;857272;-57
2021/12/06 05:31:40;;;;;;;24.85;13.43;;;;;;;;;;363798;145;858557;-57
2021/12/06 05:32:43;;;;;;;25.64;14.18;;;;;;;;;;361581;146;864768;-57
2021/12/06 05:33:46;;;;;;;23.93;13.62;;;;;;;;;;363199;148;857317;-57
2021/12/06 05:34:50;;;;;;;28.77;14.73;;;;;;;;;;363140;146;859284;-57
2021/12/06 05:35:51;;;;;;;23.69;13.51;;;;;;;;;;363067;146;857721;-57
2021/12/06 05:36:53;;;;;;;24.71;13.35;;;;;;;;;;356443;151;857322;-56
2021/12/06 05:37:55;;;;;;;23.19;12.93;;;;;;;;;;355825;149;864956;-55
2021/12/06 05:38:57;;;;;;;25.24;14.07;;;;;;;;;;362001;145;856448;-55
2021/12/06 05:39:58;;;;;;;23.20;11.42;;;;;;;;;;361906;146;867503;-56
2021/12/06 05:41:00;;;;;;;24.45;13.27;;;;;;;;;;361646;146;864777;-56
2021/12/06 05:42:03;;;;;;;23.96;14.01;;;;;;;;;;361932;145;857263;-55
2021/12/06 05:43:05;;;;;;;25.05;13.26;;;;;;;;;;363090;146;857256;-56
2021/12/06 05:44:07;;;;;;;21.85;13.36;;;;;;;;;;359925;148;859105;-56
2021/12/06 05:45:09;;;;;;;28.77;13.30;;;;;;;;;;359684;146;857940;-56
2021/12/06 05:46:11;;;;;;;32.27;14.60;;;;;;;;;;361996;146;860814;-58
2021/12/06 05:47:13;;;;;;;24.67;14.05;;;;;;;;;;361687;146;857105;-57
2021/12/06 05:48:15;;;;;;;24.44;13.81;;;;;;;;;;361838;146;857256;-57
2021/12/06 05:49:17;;;;;;;24.34;13.17;;;;;;;;;;363996;146;858984;-56
2021/12/06 05:50:20;;;;;;;25.63;13.28;;;;;;;;;;366132;146;857410;-58
2021/12/06 05:51:22;;;;;;;26.10;14.29;;;;;;;;;;362824;146;857710;-58
2021/12/06 05:52:23;;;;;;;25.37;13.60;;;;;;;;;;361785;146;865079;-58
2021/12/06 05:53:25;;;;;;;25.06;13.00;;;;;;;;;;363202;146;864801;-58
2021/12/06 05:54:28;;;;;;;25.39;14.34;;;;;;;;;;355907;149;863776;-58
2021/12/06 05:55:30;;;;;;;23.71;13.26;;;;;;;;;;362869;145;866047;-57
2021/12/06 05:56:31;;;;;;;26.96;14.51;;;;;;;;;;362853;146;857235;-57
2021/12/06 06:06:59;;;;;;;27.36;13.44;;;;;;;0.94;76.71;99492.02;370179;142;880466;-59
2021/12/06 06:08:01;;;;;;;23.57;12.59;;;;;;;;;;362698;144;857482;-60
2021/12/06 06:09:03;;;;;;;41.27;16.19;;;;;;;;;;363595;145;857636;-60
2021/12/06 06:10:05;;;;;;;66.65;24.55;;;;;;;;;;364011;145;859882;-62
2021/12/06 06:11:06;;;;;;;105.94;34.25;;;;;;;;;;363022;145;857105;-59
2021/12/06 06:12:08;;;;;;;66.09;22.90;;;;;;;;;;363886;145;858840;-61
2021/12/06 06:13:10;;;;;;;154.32;45.67;;;;;;;;;;363026;144;857369;-62
2021/12/06 06:14:12;;;;;;;217.41;59.69;;;;;;;;;;364196;144;864645;-59
2021/12/06 06:15:13;;;;;;;84.31;27.41;;;;;;;;;;363518;145;857301;-61
2021/12/06 06:16:19;;;;;;;47.59;20.71;;;;;;;;;;364585;145;857386;-61
2021/12/06 06:17:20;;;;;;;84.90;27.10;;;;;;;;;;361521;145;857226;-60
2021/12/06 06:18:21;;;;;;;43.06;18.93;;;;;;;;;;363015;145;857221;-60
2021/12/06 06:19:23;;;;;;;133.71;38.92;;;;;;;;;;359520;150;856039;-60
2021/12/06 06:20:27;;;;;;;57.51;22.13;;;;;;;;;;362029;145;856285;-60
2021/12/06 06:21:28;;;;;;;85.56;27.98;;;;;;;;;;364640;145;856045;-60